Metroplex Silver Classic 5K Run/3K Walk

Overall Finish List

March 20, 2016


Results By Pro-Fit Event Services LLC - Belton, TX Pro-Fit Event Services LLC

5K

Place Name City Bib No Age Gender Age Group Total Time Pace
1 Cameron Everts Kempner TX 744 14 M 1 Top Fin 18:52.3 6:05/M
2 Angel Morales Killeen TX 737 40 M 1 40-44 19:00.5 6:08/M
3 Tony Orozco Belton TX 550 42 M 2 40-44 19:15.0 6:13/M
4 Anthony Harding Killeen TX 441 42 M 3 40-44 19:16.4 6:13/M
5 Lorenzo Moreno Killeen TX 537 29 M 1 25-29 19:28.5 6:17/M
6 Shawn Griffin Killeen TX 430 42 M 4 40-44 19:39.0 6:20/M
7 Wade Woods Salado TX 646 15 M 1 12-15 19:42.3 6:21/M
8 Auzdon Anothen Killeen TX 317 25 M 2 25-29 19:43.0 6:22/M
9 Jonathan Castillo Killeen TX 369 34 M 1 30-34 19:51.8 6:24/M
10 William Rediske Harker Heights TX 572 52 M 1 50-54 20:12.6 6:31/M
11 Edward Sannwaldt Georgetown TX 597 60 M 1 60-64 20:20.7 6:34/M
12 Gage Chapman Killeen TX 371 23 M 1 20-24 20:55.3 6:45/M
13 Aubrey Kelly Killeen TX 481 17 M 1 16-19 21:01.0 6:47/M
14 Dustin Rumple Lampasas TX 592 21 M 2 20-24 21:09.2 6:49/M
15 Gian Mikel Pulido Killeen TX 739 12 M 2 12-15 21:22.7 6:54/M
16 Rob Sanders Waco TX 260 63 M 2 60-64 21:28.5 6:55/M
17 Shanon Stark Killeen TX 684 40 M 5 40-44 21:29.4 6:56/M
18 Zachary Aaron Killeen TX 310 16 M 2 16-19 21:36.5 6:58/M
19 Stephen Simecek Nolanville TX 605 38 M 1 35-39 21:43.8 7:00/M
20 Luis Rivera Killeen TX 583 52 M 2 50-54 21:58.6 7:05/M
21 Tony Boatman Georgetown TX 340 55 M 1 55-59 22:17.4 7:11/M
22 Mason Edwards Gatesville TX 677 14 M 3 12-15 22:21.1 7:13/M
23 Mattheaw Cash Killeen TX 368 16 M 3 16-19 22:24.8 7:14/M
24 Nate Rainer Springer Killeen TX 569 21 M 3 20-24 22:26.2 7:14/M
25 Camille McCue Harker Heights TX 664 34 F 1 Top Fin 22:37.5 7:18/M
26 Jt Picacio Killeen TX 675 16 M 4 16-19 22:52.5 7:23/M
27 Alex Picacio Killeen TX 674 12 M 4 12-15 23:01.2 7:25/M
28 Sabrina Aljameey Killeen TX 313 23 F 1 20-24 23:06.2 7:27/M
29 Matthew Smith Harker Heights TX 742 32 M 2 30-34 23:21.0 7:32/M
30 Sarah Brassard Copperas Cove TX 346 24 F 2 20-24 23:21.6 7:32/M
31 Joseph Adcock Killeen TX 749 40 M 6 40-44 23:22.5 7:32/M
32 Dennis Ortega Killeen TX 552 22 M 4 20-24 23:23.1 7:33/M
33 Gabriel Varela Killeen TX 632 26 M 3 25-29 23:24.9 7:33/M
34 Roderick Marshall Killeen TX 512 54 M 3 50-54 23:26.0 7:34/M
35 Debra Sannwaldt Georgetown TX 596 53 F 1 50-54 23:27.2 7:34/M
36 Erika Friddle Harker Heights TX 418 28 F 1 25-29 23:33.7 7:36/M
37 Sarimar Gudino Killeen TX 434 40 F 1 40-44 23:41.9 7:38/M
38 Thomas McCue Harker Heights TX 754 21 M 5 20-24 23:48.5 7:41/M
39 James Carr Killeen TX 359 12 M 5 12-15 23:54.7 7:43/M
40 Hunter Smith Killeen TX 610 28 M 4 25-29 23:55.9 7:43/M
41 Cindy Samok Austin TX 593 57 F 1 55-59 24:01.7 7:45/M
42 Jacobo Gaitan Killeen TX 423 44 M 7 40-44 24:09.1 7:47/M
43 Linda Guerrero Killeen TX 436 55 F 2 55-59 24:12.9 7:48/M
44 Matthew Elkins Killeen TX 408 14 M 6 12-15 24:17.3 7:50/M
45 Kailynn Denney Killeen TX 396 10 F 1 1-11 24:19.7 7:51/M
46 Clarence Sudler Harker Heights TX 622 63 M 3 60-64 24:24.7 7:52/M
47 Gary Rhiner Harker Heights TX 577 47 M 1 45-49 24:27.1 7:53/M
48 Stefanie Marshall Killeen TX 513 33 F 1 30-34 24:30.1 7:54/M
49 Thomas Rogers Temple TX 588 59 M 2 55-59 24:30.6 7:54/M
50 Lisa Griffin Killeen TX 429 40 F 2 40-44 24:44.2 7:59/M
51 Robert Butler Temple TX 661 26 M 5 25-29 25:05.9 8:05/M
52 Bob Wuest Austin TX 652 64 M 4 60-64 25:10.1 8:07/M
53 Trevor Pearce Killeen TX 561 30 M 3 30-34 25:11.7 8:07/M
54 Stephen Dennis III Fort Hood TX 399 12 M 7 12-15 25:15.1 8:09/M
55 Darryll Rideout Killeen TX 580 40 M 8 40-44 25:16.6 8:09/M
56 Melvin Mason Nolanville TX 514 52 M 4 50-54 25:17.9 8:09/M
57 Michael Kelly Killeen TX 482 52 M 5 50-54 25:26.8 8:12/M
58 Alecia Jarrett Alamo Heights TX 746 24 F 3 20-24 25:28.5 8:13/M
59 W.l. Turtle Powell Purmela TX 630 13 M 8 12-15 25:34.9 8:15/M
60 Tara Ambrose Round Rock TX 315 50 F 2 50-54 25:35.2 8:15/M
61 James Pearce Killeen TX 559 34 M 4 30-34 25:37.7 8:16/M
62 Michael Ebers Belton TX 405 47 M 2 45-49 25:41.5 8:17/M
63 Jason Dennis Fort Hood TX 398 10 M 1 1-11 25:56.1 8:22/M
64 Krystal Stoinoff Killeen TX 670 30 F 2 30-34 25:58.0 8:23/M
65 Antonio Millner Harker Heights TX 530 45 M 3 45-49 26:07.3 8:25/M
66 Erike Willes Nolanville TX 642 47 F 1 45-49 26:07.4 8:25/M
67 Jeff Burns Salado TX 351 50 M 6 50-54 26:13.5 8:27/M
68 Keleandro Watkins Killeen TX 659 13 M 9 12-15 26:15.9 8:28/M
69 Jennie Kidwell Kempner TX 484 31 F 3 30-34 26:18.3 8:29/M
70 Holly Landez Killeen TX 493 44 F 3 40-44 26:24.2 8:31/M
71 Pamela De Los Santos Killeen TX 394 34 F 4 30-34 26:38.9 8:35/M
72 Tyler Boyd Holland TX 345 31 F 5 30-34 26:47.5 8:38/M
73 Kristen Simmons Killeen TX 606 37 F 1 35-39 26:54.8 8:41/M
74 Bee Ruben Killeen TX 760 48 F 2 45-49 26:56.2 8:41/M
75 Jaylen Moore Killeen TX 710 12 M 10 12-15 26:57.2 8:42/M
76 Boulette Pete Temple TX 738 67 M 1 65-69 26:58.0 8:42/M
77 Scott Moore Killeen TX 711 11 M 2 1-11 26:59.1 8:42/M
78 Michelle O'Brien Gatesville TX 549 39 F 2 35-39 27:06.1 8:45/M
79 Jeremy O'Brien Gatesville TX 755 40 M 9 40-44 27:09.8 8:45/M
80 Lisa Raiden Killeen TX 568 37 F 3 35-39 27:13.1 8:47/M
81 Chrissy Wright Killeen TX 648 32 F 6 30-34 27:15.5 8:47/M
82 Suzanne Frye Haughton LA 420 31 F 7 30-34 27:18.5 8:48/M
83 Eunkyoung Mann Harker Heights TX 509 33 F 8 30-34 27:19.2 8:49/M
84 Tony Austin Killeen TX 322 51 M 7 50-54 27:20.8 8:49/M
85 Luis Rivera Nolanville TX 678 70 M 1 70-99 27:25.1 8:51/M
86 Tiffany Dewald Copperas Cove TX 401 47 F 3 45-49 27:33.6 8:53/M
87 Naine Armstrong Killeen TX 320 39 F 4 35-39 27:35.2 8:54/M
88 Robert Ballard Temple TX 325 45 M 4 45-49 27:57.9 9:01/M
89 Dona Block Belton TX 337 51 F 3 50-54 27:58.5 9:01/M
90 Daniel Guidos Killeen TX 437 25 M 6 25-29 28:04.5 9:03/M
91 Joel Jr. Secrist Harker Heights TX 601 9 M 3 1-11 28:12.6 9:06/M
92 Joel Secrist Harker Heights TX 600 44 M 10 40-44 28:13.6 9:06/M
93 Monique Lang Killeen TX 495 10 F 2 1-11 28:18.9 9:08/M
94 Robert Lang Killeen TX 496 32 M 5 30-34 28:19.2 9:08/M
95 Brian Trumpower Killeen TX 629 36 M 2 35-39 28:19.6 9:08/M
96 Janet Carlton Copperas Cove TX 357 56 F 3 55-59 28:22.6 9:09/M
97 Fletcher Lenz Lampasas TX 757 38 M 3 35-39 28:22.8 9:09/M
98 Pablo Picacio Killeen TX 673 39 M 4 35-39 28:40.0 9:15/M
99 Eric Pruitt Lufkin TX 745 46 M 5 45-49 28:40.4 9:15/M
100 Jaqlyn Sturdivant Fort Hood TX 621 8 F 3 1-11 28:53.7 9:19/M
 
Place Name City Bib No Age Gender Age Group Total Time Pace
101 Tanya Hernandez Killeen TX 449 33 F 9 30-34 29:02.4 9:22/M
102 Dakota Gordon Killeen TX 686 16 M 5 16-19 29:03.6 9:22/M
103 Sofia Almaraz Killeen TX 314 41 F 4 40-44 29:15.6 9:26/M
104 Dannielle Nichols Copperas Cove TX 547 35 F 5 35-39 29:16.6 9:26/M
105 Hamie Edwards Killeen TX 406 20 M 6 20-24 29:25.6 9:29/M
106 Angela McKee Harker Heights TX 520 35 F 6 35-39 29:27.5 9:30/M
107 Sharon McDowell Killeen TX 519 42 F 5 40-44 29:28.5 9:30/M
108 Pamela Miller Copperas Cove TX 528 45 F 4 45-49 29:29.6 9:31/M
109 Kelly Herring Killeen TX 450 51 F 4 50-54 29:31.1 9:31/M
110 Devin Gregory Houston TX 698 14 M 11 12-15 29:46.8 9:36/M
111 Abel Rodriguez Killeen TX 587 15 M 12 12-15 29:49.3 9:37/M
112 Susan Stokke Killeen TX 620 42 F 6 40-44 29:53.4 9:38/M
113 Haley Brown Round Rock TX 706 40 F 7 40-44 29:55.7 9:39/M
114 Heather Hathaway Nolanville TX 719 39 F 7 35-39 30:00.5 9:41/M
115 Amanda Wood Killeen TX 644 24 F 4 20-24 30:02.1 9:41/M
116 Michael Lane Killeen TX 494 30 M 6 30-34 30:02.2 9:41/M
117 Sherlyn Sun Killeen TX 624 25 F 2 25-29 30:04.3 9:42/M
118 Lonnie Ellis Copperas Cove TX 410 48 F 5 45-49 30:07.7 9:43/M
119 Carlie Block Belton TX 336 20 F 5 20-24 30:26.9 9:49/M
120 Megan Spivey Killeen TX 617 23 F 6 20-24 30:27.0 9:49/M
121 Georgette Mielke Kempner TX 527 38 F 8 35-39 30:45.7 9:55/M
122 James Elam Killeen TX 689 43 M 11 40-44 30:50.3 9:57/M
123 Dominga Anderson Killeen TX 679 51 F 5 50-54 30:51.3 9:57/M
124 Jason Horn Killeen TX 713 43 M 12 40-44 30:53.3 9:58/M
125 Bailey Denney Killeen TX 395 12 F 1 12-15 30:56.3 9:59/M
126 Heidi Everts Kempner TX 413 37 F 9 35-39 31:11.0 10:04/M
127 Silas Lowery Killeeneen TX 701 41 M 13 40-44 31:11.6 10:04/M
128 Toni Maupin Harker Heights TX 515 43 F 8 40-44 31:14.7 10:05/M
129 Lilly Rivera Killeen TX 690 34 F 10 30-34 31:21.5 10:07/M
130 Maria Woods Salado TX 645 42 F 9 40-44 31:21.6 10:07/M
131 Melissa Dewald Kempner TX 400 41 F 10 40-44 31:25.8 10:08/M
132 Marilou Marshall Killeen TX 511 42 F 11 40-44 31:28.3 10:09/M
133 Linda Schneider Killeen TX 753 49 F 6 45-49 31:33.7 10:11/M
134 Harriette Clark Killeen TX 373 56 F 4 55-59 31:41.8 10:13/M
135 Amy Simecek Nolanville TX 603 39 F 10 35-39 31:48.8 10:15/M
136 Jennifer Stark Killeen TX 685 42 F 12 40-44 31:59.7 10:19/M
137 Amanda Bringhurst Copperas Cove TX 348 32 F 11 30-34 32:02.4 10:20/M
138 Ann Hector Temple TX 447 43 F 13 40-44 32:12.1 10:23/M
139 Rachel Hoskins Harker Heights TX 461 30 F 12 30-34 32:18.8 10:25/M
140 Paula Burns Salado TX 352 46 F 7 45-49 32:28.2 10:28/M
141 Norbert Mafnas Killeen TX 506 64 M 5 60-64 32:31.5 10:29/M
142 Pedro Fuentes Harker Heights TX 421 73 M 2 70-99 32:53.2 10:36/M
143 Pete Campbell Killeen TX 658 44 M 14 40-44 33:06.0 10:41/M
144 Rickey Revis Temple TX 576 47 M 6 45-49 33:18.1 10:45/M
145 Anitra Smithey Killeen TX 613 36 F 11 35-39 33:20.2 10:45/M
146 Cheyenne Smithey Killeen TX 614 35 M 5 35-39 33:20.5 10:45/M
147 Neal White Salado TX 747 60 M 6 60-64 33:24.2 10:46/M
148 Kenyatta Berry Harker Heights TX 672 38 F 12 35-39 33:41.2 10:52/M
149 Ramona Nitti Harker Heights TX 741 48 F 8 45-49 33:43.8 10:53/M
150 Lauri Kvalevog Killeen TX 490 47 F 9 45-49 33:44.9 10:53/M
151 Angel Carr Killeen TX 358 10 F 4 1-11 33:45.7 10:53/M
152 Kimberly Ingrum Copperas Cove TX 471 43 F 14 40-44 33:49.6 10:55/M
153 Steven Hess Harker Heights TX 717 45 M 7 45-49 33:52.0 10:55/M
154 Dejah Hess Harker Heights TX 451 42 F 15 40-44 33:52.0 10:55/M
155 Cindy Crebo Copperas Cove TX 385 55 F 5 55-59 33:57.4 10:57/M
156 Walter Hathaway Nolanville TX 718 39 M 6 35-39 34:06.5 11:00/M
157 Ursula Gumbs Killeen TX 682 61 F 1 60-64 34:09.8 11:01/M
158 Robert Gumbs Killeen TX 683 60 M 7 60-64 34:10.6 11:01/M
159 Megan Johnson Copperas Cove TX 474 35 F 13 35-39 34:14.6 11:03/M
160 Lucy Ploeckelmann Killeen TX 566 53 F 6 50-54 34:32.2 11:08/M
161 Caren Gayle Nolanville TX 426 44 F 16 40-44 34:38.9 11:10/M
162 Keren Aguinaga Killeen TX 729 47 F 10 45-49 34:44.2 11:12/M
163 Machelle Larson Killeen TX 498 32 F 13 30-34 34:48.4 11:14/M
164 Bennett Casey Temple TX 707 31 M 7 30-34 34:50.1 11:14/M
165 Sarah Beauchamp Killeen TX 333 27 F 3 25-29 35:03.4 11:18/M
166 Courtney Samok Pflugerville TX 594 27 F 4 25-29 35:09.9 11:20/M
167 Anthony Banda Killeen TX 751 6 M 4 1-11 35:18.7 11:23/M
168 Kimberly Charles Killeen TX 372 28 F 5 25-29 35:18.7 11:23/M
169 Kimberly Green Killeen TX 428 49 F 11 45-49 35:22.8 11:25/M
170 Alana Sturdivant Fort Hood TX 681 11 F 5 1-11 35:24.1 11:25/M
171 Lilia Acevedo Killeen TX 311 36 F 14 35-39 35:30.1 11:27/M
172 Idamari De Gracia Killeen TX 393 45 F 12 45-49 35:33.4 11:28/M
173 Debbie Morrison Killeen TX 538 49 F 13 45-49 35:33.7 11:28/M
174 Jennifer Warren Killeenkilleen TX 636 44 F 17 40-44 35:37.4 11:29/M
175 Jennifer Blackmon Harker Heights TX 334 27 F 6 25-29 35:43.0 11:31/M
176 Jeanette Skinner Temple TX 607 54 F 7 50-54 35:43.9 11:31/M
177 Danny Hodde Killeen TX 453 46 M 8 45-49 36:05.8 11:38/M
178 Lindley Mendoza Harker Heights TX 525 27 F 7 25-29 36:05.9 11:38/M
179 Jill Guerin Kempner TX 435 57 F 6 55-59 36:19.0 11:43/M
180 Loraine Melbern Gatesville TX 524 19 F 1 16-19 36:27.7 11:45/M
181 Miranda Gillenwater Belton TX 427 32 F 14 30-34 36:36.0 11:48/M
182 Sharon Collum Copperas Cove TX 380 42 F 18 40-44 36:38.2 11:49/M
183 Danny Pulido Killeen TX 567 40 M 15 40-44 36:49.9 11:53/M
184 Drina Rivas Killeen TX 656 22 F 7 20-24 36:56.6 11:55/M
185 Jessica Hyde Temple TX 470 30 F 15 30-34 37:23.4 12:04/M
186 Hailey Escajeda Nolanville TX 752 13 F 2 12-15 37:24.5 12:04/M
187 Nicholas Hoskins Harker Heights TX 460 12 M 13 12-15 37:52.3 12:13/M
188 Paul Stokke Harker Heights TX 618 67 M 2 65-69 37:53.0 12:13/M
189 Dee Dee Allen Killeen TX 655 37 F 15 35-39 37:54.0 12:14/M
190 Ruthie Campbell Killeen TX 657 46 F 14 45-49 37:54.9 12:14/M
191 Danna Adcock Killeen TX 748 41 F 19 40-44 38:05.0 12:17/M
192 Jan Ward Kempner TX 634 70 F 1 70-99 38:05.4 12:17/M
193 Julie Tramp Harker Heights TX 708 46 F 15 45-49 38:06.5 12:17/M
194 Kevin Tramp Harker Heights TX 709 44 M 16 40-44 38:07.1 12:18/M
195 Brian Lopez Harker Heights TX 505 39 M 7 35-39 38:18.2 12:21/M
196 Karen Langford Killeen TX 497 51 F 8 50-54 38:21.3 12:22/M
197 Linda Carter Killeen TX 750 47 F 16 45-49 38:28.3 12:25/M
198 Tres Griffin Killeen TX 431 10 M 5 1-11 38:30.3 12:25/M
199 Vanessa Austin Killeen TX 323 53 F 9 50-54 38:41.0 12:29/M
200 Rita Alaniz Kempner TX 312 41 F 20 40-44 38:50.8 12:32/M
 
Place Name City Bib No Age Gender Age Group Total Time Pace
201 Nolan Simecek Nolanville TX 604 7 M 6 1-11 38:56.4 12:34/M
202 Lily Clarkson Killeen TX 375 9 F 6 1-11 38:58.3 12:34/M
203 David Erickson Harker Heights TX 411 57 M 3 55-59 39:08.1 12:37/M
204 Stacy Kyle Killeen TX 720 36 F 16 35-39 39:23.1 12:42/M
205 Fernando Chacon Temple TX 370 56 M 4 55-59 39:33.0 12:45/M
206 Kymra Dorre Copperas Cove TX 743 37 F 17 35-39 39:44.3 12:49/M
207 Paige Jones Killeen TX 475 24 F 8 20-24 39:51.6 12:51/M
208 Melissa Thomas Killeen TX 627 36 F 18 35-39 40:03.9 12:55/M
209 Jess Hamilton Harker Heights TX 440 73 M 3 70-99 40:07.3 12:56/M
210 Don Rhoades Harker Heights TX 578 66 M 3 65-69 40:08.2 12:57/M
211 Loan Revis Temple TX 575 45 F 17 45-49 40:28.6 13:03/M
212 Angler Watson Copperas Cove TX 637 66 F 1 65-69 40:29.4 13:04/M
213 Tonja Hill Killeen TX 452 47 F 18 45-49 40:30.5 13:04/M
214 Amy Cox Killeen TX 384 43 F 21 40-44 40:33.6 13:05/M
215 Gretel Davis Morgans Point TX 391 76 F 2 70-99 41:04.5 13:15/M
216 Helen Norris Copperas Cove TX 548 49 F 19 45-49 41:05.3 13:15/M
217 Arelis Laboy Killeen TX 491 34 F 16 30-34 41:15.7 13:18/M
218 Paul Schindler Harker Heights TX 599 38 M 8 35-39 41:24.4 13:21/M
219 Janee Mitchell Copperas Cove TX 534 31 F 17 30-34 41:25.6 13:22/M
220 Jeff Heckathorn Harker Heights TX 446 53 M 8 50-54 41:29.5 13:23/M
221 Kelly Elam Killeen TX 688 44 F 22 40-44 41:36.1 13:25/M
222 William Cronk Harker Heights TX 387 58 M 5 55-59 41:38.1 13:26/M
223 Catherine Boone Copperas Cove TX 343 43 F 23 40-44 41:38.6 13:26/M
224 Diane Cronk Harker Heights TX 386 57 F 7 55-59 41:39.4 13:26/M
225 Siobhan Kennon Killeen TX 483 34 F 18 30-34 41:40.3 13:26/M
226 Kelsey Hoxsey Killeen TX 467 26 F 8 25-29 41:53.3 13:31/M
227 A Anderson Round Rock TX 316 45 F 20 45-49 42:02.7 13:34/M
228 Lissa Buitron Killeen TX 721 30 F 19 30-34 42:07.8 13:35/M
229 Yong Wells Killeen TX 691 69 F 2 65-69 42:17.9 13:38/M
230 Kimberly Millner Harker Heights TX 531 47 F 21 45-49 42:24.5 13:41/M
231 Adeliz Ortega Killeen TX 551 20 F 9 20-24 42:35.0 13:44/M
232 Luz Fruchey Killeen TX 419 52 F 10 50-54 42:35.4 13:44/M
233 Jace Gregory Houston TX 699 8 M 7 1-11 42:38.7 13:45/M
234 Emily Revis Temple TX 574 11 F 7 1-11 42:39.2 13:45/M
235 Regina Zamora Houston TX 697 42 F 24 40-44 42:59.0 13:52/M
236 Tasia Banks Killeen TX 330 11 F 8 1-11 43:34.9 14:03/M
237 John Michael Davis Killeen TX 716 12 M 14 12-15 43:45.7 14:07/M
238 Deborah Colon Temple TX 381 39 F 19 35-39 43:51.0 14:09/M
239 Supriya Patel Temple TX 556 27 F 9 25-29 43:51.5 14:09/M
240 Hailey Walker Copperas Cove TX 633 21 F 10 20-24 44:02.9 14:12/M
241 Tonya Banks Killeen TX 331 36 F 20 35-39 44:14.9 14:16/M
242 Jennifer Sturdivant Fort Hood TX 680 34 F 20 30-34 44:19.5 14:18/M
243 Jennifer Campos Killeen TX 354 30 F 21 30-34 44:20.8 14:18/M
244 Gloria Taylor Harker Heights TX 625 48 F 22 45-49 44:21.7 14:18/M
245 Jimmy Davis Morgant Point Resort TX 392 77 M 4 70-99 44:48.8 14:27/M
246 Antonio Campbell Killeen TX 660 14 M 15 12-15 44:50.3 14:28/M
247 Shari Elkins Killeen TX 409 53 F 11 50-54 44:52.1 14:28/M
248 Stephanie Vohwinkel Killeen TX 726 40 F 25 40-44 44:52.3 14:28/M
249 Sharon Phillips Copperas Cove TX 564 60 F 2 60-64 45:08.9 14:34/M
250 Alanna Phillips Copperas Cove TX 703 35 F 21 35-39 45:34.3 14:42/M
251 Charles Wilson Copperas Cove TX 643 63 M 8 60-64 46:31.4 15:00/M
252 Laterra Jennings Killeen TX 472 31 F 22 30-34 46:59.3 15:09/M
253 Rylie Denney Killeen TX 700 6 F 9 1-11 47:10.8 15:13/M
254 Tanya Denney Killeen TX 397 31 F 23 30-34 47:11.1 15:13/M
255 Stacey Phillips Killeen TX 565 47 F 23 45-49 47:45.6 15:24/M
256 Ulrike Whalen Harker Heights TX 639 50 F 12 50-54 47:46.0 15:25/M
257 Gerry Manalang Killeen TX 508 49 M 9 45-49 49:22.6 15:55/M
258 Bria Ming Killeen TX 532 5 F 10 1-11 49:26.5 15:57/M
259 Viola Ming-Copsy Killeen TX 533 57 F 8 55-59 49:34.6 15:59/M
260 Nick Wright Killeen TX 651 16 M 6 16-19 49:57.2 16:07/M
261 Noah Gordon Killeen TX 687 13 M 16 12-15 50:05.5 16:09/M
262 Frank Cash Killeen TX 367 46 M 10 45-49 51:07.4 16:29/M
263 Hector L. Rios Killeen TX 663 60 M 9 60-64 52:25.1 16:55/M
264 Norma Rios Killeen TX 662 58 F 9 55-59 52:26.9 16:55/M
265 Karen Howard Harker Heights TX 466 30 F 24 30-34 52:28.6 16:55/M
266 Brandon Howard Harker Heights TX 465 31 M 8 30-34 52:29.9 16:56/M
267 Linda Rhoades Harker Heights TX 579 66 F 3 65-69 52:48.9 17:02/M
268 Becky Bringhurst Copperas Cove TX 349 57 F 10 55-59 52:49.9 17:02/M
269 Sheila Cook Killeen TX 382 48 F 24 45-49 53:00.8 17:06/M
270 Jean Livingston Copperas Cove TX 501 53 F 13 50-54 53:31.0 17:16/M
271 Kevin Livingston Copperas Cove TX 502 52 M 9 50-54 53:31.3 17:16/M
272 Lillian Garcia Killeen TX 425 26 F 10 25-29 54:57.3 17:44/M
273 Claudia Kim Killeen TX 485 28 F 11 25-29 54:57.8 17:44/M
274 Michael Clark Killeen TX 374 52 M 10 50-54 55:21.0 17:51/M
275 Michael Amankwaa Killeen TX 762 17 M 7 16-19 55:40.5 17:57/M
276 George Jr Amankwaa Killeen TX 763 13 M 17 12-15 56:33.0 18:15/M
277 Renee Larson Killeen TX 499 46 F 25 45-49 1:00:57.8 19:40/M
278 Manolito Guzman Killeen TX 439 40 M 17 40-44 1:01:06.1 19:43/M
279 Angelica Guzman Killeen TX 438 40 F 26 40-44 1:01:06.5 19:43/M
280 Victoria Amankwaa Killeen TX 761 43 F 27 40-44 1:01:20.6 19:47/M
281 Enoch Amankwaa Kileen TX 764 10 F 11 1-11 1:04:25.4 20:47/M
282 Paul Casey Harker Heights TX 366 58 M 6 55-59 1:06:29.2 21:27/M
283 Jane Casey Harker Heights TX 365 52 F 14 50-54 1:06:34.1 21:28/M